createdAt,value
2022-11-23T00:01:30.086Z,99026.50
2022-11-23T00:03:58.770Z,99023.88
2022-11-23T00:06:26.026Z,99024.69
2022-11-23T00:08:53.252Z,99019.44
2022-11-23T00:11:21.255Z,99027.19
2022-11-23T00:13:47.714Z,99029.69
2022-11-23T00:16:16.508Z,99027.97
2022-11-23T00:18:43.105Z,99032.41
2022-11-23T00:21:12.262Z,99030.66
2022-11-23T00:23:38.887Z,99029.78
2022-11-23T00:26:06.234Z,99036.50
2022-11-23T00:28:33.370Z,99033.06
2022-11-23T00:30:59.788Z,99037.38
2022-11-23T00:33:26.243Z,99039.00
2022-11-23T00:36:03.429Z,99042.50
2022-11-23T00:38:30.351Z,99044.19
2022-11-23T00:41:06.230Z,99046.81
2022-11-23T00:43:33.047Z,99044.16
2022-11-23T00:46:19.452Z,99045.97
2022-11-23T00:48:47.972Z,99050.38
2022-11-23T00:51:16.947Z,99048.56
2022-11-23T00:53:44.201Z,99044.19
2022-11-23T00:56:11.192Z,99043.25
2022-11-23T00:58:41.001Z,99054.50
2022-11-23T01:01:13.097Z,99050.19
2022-11-23T01:03:42.573Z,99056.25
2022-11-23T01:06:11.847Z,99065.72
2022-11-23T01:08:39.215Z,99061.41
2022-11-23T01:11:08.598Z,99065.84
2022-11-23T01:13:36.042Z,99059.63
2022-11-23T01:16:02.498Z,99065.63
2022-11-23T01:18:28.989Z,99063.88
2022-11-23T01:20:55.442Z,99067.38
2022-11-23T01:23:21.923Z,99075.16
2022-11-23T01:25:51.918Z,99071.63
2022-11-23T01:28:20.732Z,99078.59
2022-11-23T01:30:47.150Z,99079.38
2022-11-23T01:33:13.627Z,99078.47
2022-11-23T01:35:40.074Z,99081.06
2022-11-23T01:38:06.551Z,99087.91
2022-11-23T01:40:41.042Z,99083.56
2022-11-23T01:43:15.330Z,99086.16
2022-11-23T01:46:01.517Z,99087.91
2022-11-23T01:48:38.024Z,99090.56
2022-11-23T01:51:09.501Z,99084.53
2022-11-23T01:53:37.353Z,99087.16
2022-11-23T01:56:06.954Z,99086.09
2022-11-23T01:58:37.765Z,99089.50
2022-11-23T02:01:07.223Z,99094.72
2022-11-23T02:03:36.598Z,99094.72
2022-11-23T02:06:07.698Z,99102.44
2022-11-23T02:08:34.947Z,99103.28
2022-11-23T02:11:02.001Z,99103.28
2022-11-23T02:13:28.953Z,99099.00
2022-11-23T02:15:57.619Z,99101.59
2022-11-23T02:18:27.191Z,99101.66
2022-11-23T02:20:54.067Z,99100.88
2022-11-23T02:23:32.351Z,99105.91
2022-11-23T02:26:31.409Z,99106.69
2022-11-23T02:29:03.958Z,99106.69
2022-11-23T02:31:30.489Z,99104.13
2022-11-23T02:33:56.949Z,99103.16
2022-11-23T02:36:32.496Z,99104.03
2022-11-23T02:39:01.563Z,99102.25
2022-11-23T02:41:28.013Z,99104.03
2022-11-23T02:43:57.312Z,99101.47
2022-11-23T02:46:23.794Z,99103.13
2022-11-23T02:48:50.194Z,99107.41
2022-11-23T02:51:16.637Z,99115.09
2022-11-23T02:53:43.013Z,99110.72
2022-11-23T02:56:09.455Z,99109.03
2022-11-23T02:58:35.889Z,99109.94
2022-11-23T03:01:02.345Z,99115.22
2022-11-23T03:03:28.799Z,99117.00
2022-11-23T03:05:55.309Z,99122.31
2022-11-23T03:08:21.718Z,99116.25
2022-11-23T03:10:48.173Z,99117.16
2022-11-23T03:13:14.618Z,99121.59
2022-11-23T03:15:41.040Z,99123.44
2022-11-23T03:18:07.572Z,99124.44
2022-11-23T03:20:34.037Z,99129.66
2022-11-23T03:23:00.450Z,99127.97
2022-11-23T03:25:26.905Z,99134.00
2022-11-23T03:27:53.432Z,99130.50
2022-11-23T03:30:19.963Z,99126.22
2022-11-23T03:32:46.375Z,99119.25
2022-11-23T03:35:12.850Z,99127.06
2022-11-23T03:37:39.285Z,99118.41
2022-11-23T03:40:06.493Z,99126.22
2022-11-23T03:42:32.882Z,99124.53
2022-11-23T03:44:59.302Z,99129.75
2022-11-23T03:47:25.721Z,99128.94
2022-11-23T03:49:52.145Z,99132.41
2022-11-23T03:52:18.643Z,99123.72
2022-11-23T03:54:45.158Z,99126.41
2022-11-23T03:57:11.541Z,99124.69
2022-11-23T03:59:37.946Z,99125.53
2022-11-23T04:02:04.433Z,99123.84
2022-11-23T04:04:30.829Z,99118.69
2022-11-23T04:06:57.275Z,99129.97
2022-11-23T04:09:23.905Z,99123.94
2022-11-23T04:11:50.515Z,99134.31
2022-11-23T04:14:16.977Z,99138.66
2022-11-23T04:16:43.495Z,99133.44
2022-11-23T04:19:09.921Z,99137.84
2022-11-23T04:21:37.366Z,99133.56
2022-11-23T04:24:04.015Z,99126.69
2022-11-23T04:26:30.459Z,99130.16
2022-11-23T04:28:56.914Z,99133.66
2022-11-23T04:31:23.347Z,99124.16
2022-11-23T04:33:49.963Z,99127.66
2022-11-23T04:36:16.397Z,99125.09
2022-11-23T04:38:43.205Z,99132.91
2022-11-23T04:41:10.401Z,99122.53
2022-11-23T04:43:36.842Z,99126.00
2022-11-23T04:46:03.588Z,99124.28
2022-11-23T04:48:30.064Z,99120.84
2022-11-23T04:50:56.540Z,99116.47
2022-11-23T04:53:23.007Z,99130.28
2022-11-23T04:55:49.469Z,99138.09
2022-11-23T04:58:15.974Z,99128.66
2022-11-23T05:00:42.460Z,99132.03
2022-11-23T05:03:08.924Z,99132.00
2022-11-23T05:05:37.999Z,99126.78
2022-11-23T05:08:04.838Z,99132.88
2022-11-23T05:10:31.289Z,99145.00
2022-11-23T05:12:57.725Z,99138.88
2022-11-23T05:15:24.200Z,99150.19
2022-11-23T05:17:54.044Z,99150.13
2022-11-23T05:20:23.229Z,99138.03
2022-11-23T05:22:49.676Z,99139.72
2022-11-23T05:25:16.073Z,99130.22
2022-11-23T05:27:42.812Z,99140.56
2022-11-23T05:30:09.691Z,99145.00
2022-11-23T05:32:36.156Z,99145.84
2022-11-23T05:35:02.622Z,99144.94
2022-11-23T05:37:29.038Z,99152.81
2022-11-23T05:39:55.458Z,99151.09
2022-11-23T05:42:21.967Z,99155.47
2022-11-23T05:44:48.374Z,99151.09
2022-11-23T05:47:14.789Z,99156.31
2022-11-23T05:49:41.233Z,99148.50
2022-11-23T05:52:07.706Z,99153.72
2022-11-23T05:54:34.226Z,99159.75
2022-11-23T05:57:00.883Z,99153.72
2022-11-23T05:59:27.384Z,99155.47
2022-11-23T06:01:53.808Z,99156.38
2022-11-23T06:04:20.349Z,99153.78
2022-11-23T06:06:46.945Z,99157.28
2022-11-23T06:09:13.390Z,99159.91
2022-11-23T06:11:39.876Z,99158.19
2022-11-23T06:14:08.809Z,99157.34
2022-11-23T06:16:39.243Z,99158.16
2022-11-23T06:19:05.957Z,99157.28
2022-11-23T06:21:32.354Z,99159.91
2022-11-23T06:23:58.826Z,99165.09
2022-11-23T06:26:25.807Z,99165.09
2022-11-23T06:28:52.234Z,99157.34
2022-11-23T06:31:18.712Z,99159.94
2022-11-23T06:33:45.182Z,99162.50
2022-11-23T06:36:12.423Z,99158.19
2022-11-23T06:38:38.906Z,99155.59
2022-11-23T06:41:05.589Z,99163.41
2022-11-23T06:43:32.301Z,99163.41
2022-11-23T06:45:58.852Z,99160.81
2022-11-23T06:48:25.301Z,99158.19
2022-11-23T06:50:51.843Z,99159.09
2022-11-23T06:53:18.285Z,99158.19
2022-11-23T06:55:44.720Z,99163.41
2022-11-23T06:58:11.246Z,99160.84
2022-11-23T07:00:37.629Z,99160.84
2022-11-23T07:03:04.078Z,99160.00
2022-11-23T07:05:30.532Z,99170.38
2022-11-23T07:07:57.267Z,99167.81
2022-11-23T07:10:23.772Z,99173.88
2022-11-23T07:12:50.226Z,99173.03
2022-11-23T07:15:16.713Z,99173.88
2022-11-23T07:17:44.444Z,99172.97
2022-11-23T07:20:12.469Z,99172.13
2022-11-23T07:22:39.429Z,99173.81
2022-11-23T07:25:06.206Z,99183.34
2022-11-23T07:27:32.653Z,99173.78
2022-11-23T07:29:59.153Z,99179.03
2022-11-23T07:32:25.693Z,99181.53
2022-11-23T07:34:52.119Z,99187.66
2022-11-23T07:37:18.574Z,99191.03
2022-11-23T07:40:01.043Z,99191.03
2022-11-23T07:42:34.501Z,99196.22
2022-11-23T07:45:05.191Z,99194.47
2022-11-23T07:47:31.863Z,99194.47
2022-11-23T07:49:58.343Z,99203.09
2022-11-23T07:52:25.557Z,99202.00
2022-11-23T07:54:52.025Z,99202.78
2022-11-23T07:57:18.501Z,99210.50
2022-11-23T07:59:44.998Z,99218.31
2022-11-23T08:02:15.093Z,99211.31
2022-11-23T08:04:41.674Z,99219.94
2022-11-23T08:07:08.189Z,99217.22
2022-11-23T08:09:34.861Z,99216.25
2022-11-23T08:12:01.372Z,99222.25
2022-11-23T08:14:27.786Z,99227.50
2022-11-23T08:16:54.288Z,99229.09
2022-11-23T08:19:20.753Z,99229.91
2022-11-23T08:21:47.168Z,99225.41
2022-11-23T08:24:13.642Z,99227.03
2022-11-23T08:26:40.085Z,99228.75
2022-11-23T08:29:06.677Z,99232.19
2022-11-23T08:31:33.140Z,99228.81
2022-11-23T08:34:03.225Z,99231.47
2022-11-23T08:36:30.277Z,99228.75
2022-11-23T08:38:56.749Z,99233.06
2022-11-23T08:41:23.267Z,99238.50
2022-11-23T08:43:51.284Z,99236.69
2022-11-23T08:46:17.887Z,99244.53
2022-11-23T08:48:44.402Z,99243.78
2022-11-23T08:51:11.533Z,99242.00
2022-11-23T08:53:38.400Z,99241.03
2022-11-23T08:56:06.643Z,99238.38
2022-11-23T08:58:33.195Z,99243.47
2022-11-23T09:00:59.600Z,99241.59
2022-11-23T09:03:26.145Z,99246.69
2022-11-23T09:05:54.293Z,99240.69
2022-11-23T09:08:20.711Z,99251.91
2022-11-23T09:10:47.100Z,99238.84
2022-11-23T09:13:13.660Z,99241.41
2022-11-23T09:15:40.199Z,99233.53
2022-11-23T09:18:06.668Z,99246.38
2022-11-23T09:20:33.246Z,99248.91
2022-11-23T09:22:59.695Z,99238.47
2022-11-23T09:25:26.221Z,99246.38
2022-11-23T09:28:00.170Z,99254.91
2022-11-23T09:30:27.796Z,99253.22
2022-11-23T09:32:58.248Z,99257.53
2022-11-23T09:35:25.326Z,99248.84
2022-11-23T09:37:56.902Z,99258.31
2022-11-23T09:40:25.369Z,99248.69
2022-11-23T09:43:07.146Z,99253.06
2022-11-23T09:46:05.847Z,99253.66
2022-11-23T09:48:45.800Z,99256.16
2022-11-23T09:51:21.181Z,99266.56
2022-11-23T09:54:04.127Z,99259.47
2022-11-23T09:56:35.101Z,99264.56
2022-11-23T09:59:30.969Z,99261.91
2022-11-23T10:01:58.775Z,99268.16
2022-11-23T10:04:25.537Z,99259.66
2022-11-23T10:07:03.286Z,99257.19
2022-11-23T10:09:53.928Z,99261.72
2022-11-23T10:12:40.129Z,99258.31
2022-11-23T10:15:20.739Z,99244.25
2022-11-23T10:18:20.903Z,99243.41
2022-11-23T10:21:09.263Z,99247.84
2022-11-23T10:23:48.260Z,99238.88
2022-11-23T10:26:17.837Z,99236.38
2022-11-23T10:28:45.910Z,99248.63
2022-11-23T10:31:21.028Z,99249.53
2022-11-23T10:34:12.923Z,99242.50
2022-11-23T10:36:41.065Z,99245.06
2022-11-23T10:39:22.898Z,99239.53
2022-11-23T10:41:53.548Z,99233.47
2022-11-23T10:44:31.305Z,99223.03
2022-11-23T10:46:59.268Z,99228.72
2022-11-23T10:49:34.079Z,99220.81
2022-11-23T10:52:06.899Z,99217.28
2022-11-23T10:54:38.688Z,99203.34
2022-11-23T10:57:44.256Z,99208.44
2022-11-23T11:00:10.988Z,99206.47
2022-11-23T11:02:41.249Z,99202.22
2022-11-23T11:05:46.293Z,99196.22
2022-11-23T11:08:21.516Z,99190.94
2022-11-23T11:10:52.571Z,99184.84
2022-11-23T11:13:26.846Z,99189.03
2022-11-23T11:16:02.695Z,99175.94
2022-11-23T11:18:34.951Z,99176.78
2022-11-23T11:21:21.678Z,99176.69
2022-11-23T11:23:54.279Z,99170.38
2022-11-23T11:26:23.469Z,99164.50
2022-11-23T11:28:53.266Z,99154.84
2022-11-23T11:31:30.763Z,99149.63
2022-11-23T11:34:16.627Z,99153.16
2022-11-23T11:36:48.961Z,99135.78
2022-11-23T11:39:25.961Z,99150.19
2022-11-23T11:41:54.520Z,99140.38
2022-11-23T11:44:26.890Z,99144.56
2022-11-23T11:47:04.437Z,99139.59
2022-11-23T11:49:37.607Z,99152.59
2022-11-23T11:52:11.609Z,99153.44
2022-11-23T11:54:49.970Z,99156.13
2022-11-23T11:57:30.077Z,99138.84
2022-11-23T11:59:58.302Z,99153.44
2022-11-23T12:02:27.851Z,99152.53
2022-11-23T12:05:14.089Z,99135.81
2022-11-23T12:07:52.771Z,99144.56
2022-11-23T12:10:27.951Z,99139.25
2022-11-23T12:12:56.476Z,99136.66
2022-11-23T12:15:50.212Z,99137.28
2022-11-23T12:18:23.071Z,99137.41
2022-11-23T12:21:06.800Z,99131.22
2022-11-23T12:23:36.423Z,99133.06
2022-11-23T12:26:21.560Z,99121.03
2022-11-23T12:29:13.697Z,99131.56
2022-11-23T12:31:49.490Z,99123.59
2022-11-23T12:34:34.673Z,99129.50
2022-11-23T12:37:21.280Z,99121.53
2022-11-23T12:39:59.850Z,99123.47
2022-11-23T12:42:44.458Z,99121.63
2022-11-23T12:45:23.218Z,99119.81
2022-11-23T12:48:07.467Z,99118.41
2022-11-23T12:51:00.147Z,99117.81
2022-11-23T12:53:45.500Z,99105.41
2022-11-23T12:56:20.999Z,99098.44
2022-11-23T12:58:49.037Z,99094.13
2022-11-23T13:01:31.639Z,99093.41
2022-11-23T13:04:33.535Z,99085.72
2022-11-23T13:07:40.941Z,99080.66
2022-11-23T13:10:20.352Z,99070.72
2022-11-23T13:13:12.509Z,99072.84
2022-11-23T13:16:17.784Z,99072.66
2022-11-23T13:19:23.020Z,99075.97
2022-11-23T13:21:50.092Z,99075.69
2022-11-23T13:24:27.800Z,99071.97
2022-11-23T13:27:12.779Z,99066.91
2022-11-23T13:29:47.330Z,99058.78
2022-11-23T13:32:38.748Z,99064.88
2022-11-23T13:35:17.522Z,99062.50
2022-11-23T13:37:56.220Z,99074.91
2022-11-23T13:40:25.740Z,99067.78
2022-11-23T13:42:54.109Z,99058.28
2022-11-23T13:45:20.501Z,99055.88
2022-11-23T13:48:08.754Z,99062.22
2022-11-23T13:50:37.693Z,99066.44
2022-11-23T13:53:22.669Z,99063.63
2022-11-23T13:55:52.492Z,99063.28
2022-11-23T13:58:25.152Z,99064.31
2022-11-23T14:00:59.453Z,99058.50
2022-11-23T14:03:52.266Z,99064.97
2022-11-23T14:06:36.995Z,99052.78
2022-11-23T14:09:12.744Z,99044.94
2022-11-23T14:12:09.391Z,99051.34
2022-11-23T14:14:43.997Z,99045.31
2022-11-23T14:17:13.465Z,99048.91
2022-11-23T14:19:46.129Z,99045.63
2022-11-23T14:22:38.920Z,99048.34
2022-11-23T14:25:34.484Z,99048.53
2022-11-23T14:28:29.124Z,99044.28
2022-11-23T14:31:12.422Z,99052.16
2022-11-23T14:34:00.505Z,99044.34
2022-11-23T14:36:46.002Z,99038.19
2022-11-23T14:39:30.738Z,99042.63
2022-11-23T14:42:05.358Z,99054.72
2022-11-23T14:44:38.439Z,99048.63
2022-11-23T14:47:10.793Z,99051.38
2022-11-23T14:49:48.101Z,99057.59
2022-11-23T14:52:19.596Z,99051.44
2022-11-23T14:54:49.843Z,99056.66
2022-11-23T14:57:18.184Z,99063.50
2022-11-23T14:59:48.888Z,99068.66
2022-11-23T15:02:23.322Z,99080.88
2022-11-23T15:05:12.616Z,99092.22
2022-11-23T15:07:43.791Z,99098.41
2022-11-23T15:10:25.480Z,99102.88
2022-11-23T15:12:51.967Z,99122.97
2022-11-23T15:15:20.304Z,99120.41
2022-11-23T15:17:56.100Z,99121.50
2022-11-23T15:20:26.818Z,99129.44
2022-11-23T15:22:53.418Z,99131.25
2022-11-23T15:25:20.141Z,99138.31
2022-11-23T15:27:50.838Z,99137.72
2022-11-23T15:30:37.306Z,99134.56
2022-11-23T15:33:11.522Z,99152.03
2022-11-23T15:35:39.725Z,99150.44
2022-11-23T15:38:17.755Z,99155.72
2022-11-23T15:40:49.424Z,99157.53
2022-11-23T15:43:19.009Z,99162.09
2022-11-23T15:45:45.431Z,99168.41
2022-11-23T15:48:18.485Z,99174.59
2022-11-23T15:50:53.800Z,99180.00
2022-11-23T15:53:25.087Z,99187.94
2022-11-23T15:55:54.284Z,99183.75
2022-11-23T15:58:21.838Z,99186.44
2022-11-23T16:00:51.642Z,99200.50
2022-11-23T16:03:29.302Z,99212.72
2022-11-23T16:06:11.181Z,99213.72
2022-11-23T16:08:40.639Z,99218.13
2022-11-23T16:11:31.116Z,99227.69
2022-11-23T16:14:19.602Z,99234.78
2022-11-23T16:16:58.268Z,99232.19
2022-11-23T16:19:30.487Z,99242.66
2022-11-23T16:22:02.858Z,99243.50
2022-11-23T16:24:32.271Z,99252.28
2022-11-23T16:26:59.447Z,99259.25
2022-11-23T16:29:36.205Z,99260.09
2022-11-23T16:32:06.848Z,99260.09
2022-11-23T16:34:33.669Z,99267.00
2022-11-23T16:37:03.852Z,99260.09
2022-11-23T16:39:30.391Z,99265.31
2022-11-23T16:41:56.866Z,99269.66
2022-11-23T16:44:23.290Z,99278.41
2022-11-23T16:46:49.841Z,99278.41
2022-11-23T16:49:23.272Z,99277.53
2022-11-23T16:51:57.236Z,99293.25
2022-11-23T16:54:25.337Z,99289.78
2022-11-23T16:56:52.770Z,99288.03
2022-11-23T16:59:19.662Z,99293.34
2022-11-23T17:01:51.434Z,99295.03
2022-11-23T17:04:22.162Z,99285.63
2022-11-23T17:06:49.007Z,99285.66
2022-11-23T17:09:15.389Z,99283.88
2022-11-23T17:11:45.104Z,99288.25
2022-11-23T17:14:18.923Z,99300.44
2022-11-23T17:16:46.949Z,99303.88
2022-11-23T17:19:18.974Z,99306.50
2022-11-23T17:21:45.452Z,99320.41
2022-11-23T17:24:13.774Z,99326.47
2022-11-23T17:26:46.487Z,99325.69
2022-11-23T17:29:19.557Z,99333.50
2022-11-23T17:31:47.227Z,99335.19
2022-11-23T17:34:14.970Z,99343.00
2022-11-23T17:36:43.112Z,99334.44
2022-11-23T17:39:30.010Z,99345.75
2022-11-23T17:42:03.095Z,99344.91
2022-11-23T17:44:31.235Z,99355.31
2022-11-23T17:47:00.097Z,99351.88
2022-11-23T17:49:28.323Z,99344.06
2022-11-23T17:51:55.758Z,99352.00
2022-11-23T17:54:25.309Z,99359.81
2022-11-23T17:56:52.127Z,99367.78
2022-11-23T17:59:19.074Z,99374.72
2022-11-23T18:01:45.697Z,99377.31
2022-11-23T18:04:12.259Z,99358.19
2022-11-23T18:06:38.882Z,99358.19
2022-11-23T18:09:06.538Z,99367.81
2022-11-23T18:11:33.016Z,99373.09
2022-11-23T18:13:59.501Z,99377.47
2022-11-23T18:16:26.081Z,99379.28
2022-11-23T18:18:52.619Z,99378.34
2022-11-23T18:21:19.176Z,99380.03
2022-11-23T18:23:45.723Z,99380.94
2022-11-23T18:26:21.236Z,99379.19
2022-11-23T18:28:48.852Z,99380.09
2022-11-23T18:31:16.548Z,99383.53
2022-11-23T18:33:43.298Z,99399.16
2022-11-23T18:36:10.595Z,99393.97
2022-11-23T18:38:38.097Z,99399.97
2022-11-23T18:41:05.332Z,99395.56
2022-11-23T18:43:31.989Z,99407.72
2022-11-23T18:45:59.185Z,99412.94
2022-11-23T18:48:25.778Z,99408.56
2022-11-23T18:50:54.151Z,99413.78
2022-11-23T18:53:20.641Z,99422.47
2022-11-23T18:55:47.135Z,99425.06
2022-11-23T18:58:13.584Z,99422.44
2022-11-23T19:00:40.178Z,99431.09
2022-11-23T19:03:06.747Z,99432.81
2022-11-23T19:05:34.862Z,99438.03
2022-11-23T19:08:13.670Z,99439.81
2022-11-23T19:10:40.123Z,99445.03
2022-11-23T19:13:06.587Z,99453.69
2022-11-23T19:15:33.762Z,99451.94
2022-11-23T19:18:00.808Z,99460.59
2022-11-23T19:20:29.140Z,99464.06
2022-11-23T19:22:55.981Z,99458.84
2022-11-23T19:25:22.418Z,99466.66
2022-11-23T19:27:51.155Z,99477.09
2022-11-23T19:30:17.649Z,99473.63
2022-11-23T19:32:44.330Z,99470.97
2022-11-23T19:35:10.822Z,99482.19
2022-11-23T19:37:37.319Z,99478.75
2022-11-23T19:40:04.230Z,99479.56
2022-11-23T19:42:30.712Z,99483.94
2022-11-23T19:44:57.173Z,99487.41
2022-11-23T19:47:23.602Z,99492.63
2022-11-23T19:49:50.130Z,99500.53
2022-11-23T19:52:16.603Z,99504.03
2022-11-23T19:54:43.045Z,99524.88
2022-11-23T19:57:09.468Z,99520.53
2022-11-23T19:59:36.179Z,99515.34
2022-11-23T20:02:02.913Z,99519.69
2022-11-23T20:04:29.728Z,99528.41
2022-11-23T20:06:56.515Z,99525.03
2022-11-23T20:09:23.918Z,99533.75
2022-11-23T20:11:51.408Z,99531.38
2022-11-23T20:14:18.375Z,99536.53
2022-11-23T20:16:44.966Z,99533.28
2022-11-23T20:19:11.690Z,99541.94
2022-11-23T20:21:38.382Z,99545.44
2022-11-23T20:24:07.686Z,99548.94
2022-11-23T20:26:38.742Z,99549.03
2022-11-23T20:29:06.311Z,99552.63
2022-11-23T20:31:33.823Z,99550.91
2022-11-23T20:34:01.036Z,99557.94
2022-11-23T20:36:32.422Z,99564.06
2022-11-23T20:39:01.882Z,99561.44
2022-11-23T20:41:30.680Z,99570.16
2022-11-23T20:44:10.969Z,99562.41
2022-11-23T20:47:00.460Z,99570.25
2022-11-23T20:49:23.994Z,99566.75
2022-11-23T20:51:50.520Z,99569.44
2022-11-23T20:54:17.016Z,99575.47
2022-11-23T20:56:43.481Z,99573.84
2022-11-23T20:59:12.040Z,99564.44
2022-11-23T21:01:40.662Z,99564.47
2022-11-23T21:04:08.814Z,99578.38
2022-11-23T21:06:38.976Z,99571.44
2022-11-23T21:09:07.680Z,99574.16
2022-11-23T21:11:52.632Z,99582.91
2022-11-23T21:14:24.617Z,99588.13
2022-11-23T21:16:54.969Z,99593.50
2022-11-23T21:19:35.937Z,99587.34
2022-11-23T21:22:05.260Z,99594.31
2022-11-23T21:24:32.270Z,99595.19
2022-11-23T21:26:59.019Z,99597.06
2022-11-23T21:29:26.176Z,99598.81
2022-11-23T21:31:52.780Z,99608.25
2022-11-23T21:34:22.085Z,99605.72
2022-11-23T21:36:49.814Z,99611.69
2022-11-23T21:39:17.384Z,99608.19
2022-11-23T21:41:44.027Z,99618.56
2022-11-23T21:44:11.170Z,99616.91
2022-11-23T21:46:39.652Z,99609.94
2022-11-23T21:49:06.772Z,99612.50
2022-11-23T21:51:33.769Z,99616.00
2022-11-23T21:54:03.116Z,99627.22
2022-11-23T21:56:30.227Z,99630.75
2022-11-23T21:58:57.290Z,99638.56
2022-11-23T22:01:32.462Z,99638.56
2022-11-23T22:04:02.005Z,99638.53
2022-11-23T22:06:28.854Z,99649.81
2022-11-23T22:08:59.766Z,99652.38
2022-11-23T22:11:33.165Z,99662.78
2022-11-23T22:14:02.169Z,99662.81
2022-11-23T22:16:31.343Z,99667.25
2022-11-23T22:18:59.107Z,99672.47
2022-11-23T22:21:33.647Z,99675.03
2022-11-23T22:24:00.178Z,99679.44
2022-11-23T22:26:27.779Z,99687.16
2022-11-23T22:28:55.427Z,99684.53
2022-11-23T22:31:24.767Z,99678.34
2022-11-23T22:33:53.282Z,99680.03
2022-11-23T22:36:22.615Z,99684.31
2022-11-23T22:39:01.934Z,99676.47
2022-11-23T22:41:29.869Z,99691.28
2022-11-23T22:43:57.044Z,99693.03
2022-11-23T22:46:24.611Z,99698.28
2022-11-23T22:48:52.326Z,99700.97
2022-11-23T22:51:22.891Z,99712.28
2022-11-23T22:53:57.193Z,99708.78
2022-11-23T22:56:24.605Z,99716.59
2022-11-23T22:58:51.114Z,99713.97
2022-11-23T23:01:20.547Z,99718.25
2022-11-23T23:03:47.791Z,99715.63
2022-11-23T23:06:19.462Z,99722.50
2022-11-23T23:08:47.200Z,99724.25
2022-11-23T23:11:14.907Z,99730.28
2022-11-23T23:13:42.083Z,99733.72
2022-11-23T23:16:11.904Z,99734.56
2022-11-23T23:18:39.027Z,99732.88
2022-11-23T23:21:10.829Z,99740.63
2022-11-23T23:23:38.707Z,99745.81
2022-11-23T23:26:05.991Z,99743.25
2022-11-23T23:28:32.526Z,99751.97
2022-11-23T23:31:03.490Z,99752.91
2022-11-23T23:33:32.264Z,99753.78
2022-11-23T23:36:10.378Z,99755.56
2022-11-23T23:38:38.310Z,99753.00
2022-11-23T23:41:05.867Z,99764.28
2022-11-23T23:43:32.593Z,99767.78
2022-11-23T23:46:00.896Z,99771.25
2022-11-23T23:48:35.819Z,99769.56
2022-11-23T23:51:07.236Z,99767.84
2022-11-23T23:53:35.124Z,99773.06
2022-11-23T23:56:06.313Z,99780.88
2022-11-23T23:58:32.846Z,99778.28
